sensor_id;sensor_type;location;lat;lon;timestamp;P1;durP1;ratioP1;P2;durP2;ratioP2
15944;SDS011;30172;48.832;8.732;2022-11-14T00:02:21;17.27;;;13.43;;
15944;SDS011;30172;48.832;8.732;2022-11-14T00:04:47;17.47;;;13.07;;
15944;SDS011;30172;48.832;8.732;2022-11-14T00:07:13;20.13;;;13.00;;
15944;SDS011;30172;48.832;8.732;2022-11-14T00:09:38;15.07;;;12.70;;
15944;SDS011;30172;48.832;8.732;2022-11-14T00:12:06;16.80;;;12.40;;
15944;SDS011;30172;48.832;8.732;2022-11-14T00:14:32;20.40;;;13.33;;
15944;SDS011;30172;48.832;8.732;2022-11-14T00:16:58;25.53;;;12.87;;
15944;SDS011;30172;48.832;8.732;2022-11-14T00:19:23;16.63;;;13.13;;
15944;SDS011;30172;48.832;8.732;2022-11-14T00:21:48;33.50;;;12.17;;
15944;SDS011;30172;48.832;8.732;2022-11-14T00:24:16;65.93;;;14.27;;
15944;SDS011;30172;48.832;8.732;2022-11-14T00:26:41;44.50;;;12.67;;
15944;SDS011;30172;48.832;8.732;2022-11-14T00:29:06;16.30;;;12.07;;
15944;SDS011;30172;48.832;8.732;2022-11-14T00:31:32;13.73;;;11.27;;
15944;SDS011;30172;48.832;8.732;2022-11-14T00:33:57;13.40;;;11.07;;
15944;SDS011;30172;48.832;8.732;2022-11-14T00:36:22;16.33;;;11.80;;
15944;SDS011;30172;48.832;8.732;2022-11-14T00:38:50;13.67;;;11.10;;
15944;SDS011;30172;48.832;8.732;2022-11-14T00:41:16;15.90;;;11.90;;
15944;SDS011;30172;48.832;8.732;2022-11-14T00:43:41;16.87;;;11.50;;
15944;SDS011;30172;48.832;8.732;2022-11-14T00:46:07;15.07;;;11.40;;
15944;SDS011;30172;48.832;8.732;2022-11-14T00:48:32;12.30;;;10.23;;
15944;SDS011;30172;48.832;8.732;2022-11-14T00:50:57;12.17;;;10.30;;
15944;SDS011;30172;48.832;8.732;2022-11-14T00:53:23;28.97;;;11.27;;
15944;SDS011;30172;48.832;8.732;2022-11-14T00:55:48;18.27;;;12.27;;
15944;SDS011;30172;48.832;8.732;2022-11-14T00:58:13;14.80;;;12.37;;
15944;SDS011;30172;48.832;8.732;2022-11-14T01:00:39;16.13;;;12.00;;
15944;SDS011;30172;48.832;8.732;2022-11-14T01:03:04;13.20;;;11.27;;
15944;SDS011;30172;48.832;8.732;2022-11-14T01:05:29;21.60;;;12.43;;
15944;SDS011;30172;48.832;8.732;2022-11-14T01:07:55;17.77;;;11.67;;
15944;SDS011;30172;48.832;8.732;2022-11-14T01:10:21;40.30;;;12.80;;
15944;SDS011;30172;48.832;8.732;2022-11-14T01:12:46;20.67;;;11.87;;
15944;SDS011;30172;48.832;8.732;2022-11-14T01:15:12;21.30;;;12.03;;
15944;SDS011;30172;48.832;8.732;2022-11-14T01:17:37;20.17;;;11.83;;
15944;SDS011;30172;48.832;8.732;2022-11-14T01:20:03;12.67;;;11.17;;
15944;SDS011;30172;48.832;8.732;2022-11-14T01:22:29;34.40;;;14.90;;
15944;SDS011;30172;48.832;8.732;2022-11-14T01:24:54;15.57;;;12.57;;
15944;SDS011;30172;48.832;8.732;2022-11-14T01:27:22;26.87;;;11.33;;
15944;SDS011;30172;48.832;8.732;2022-11-14T01:29:47;55.97;;;13.43;;
15944;SDS011;30172;48.832;8.732;2022-11-14T01:32:13;21.30;;;11.07;;
15944;SDS011;30172;48.832;8.732;2022-11-14T01:34:38;17.60;;;12.10;;
15944;SDS011;30172;48.832;8.732;2022-11-14T01:37:03;98.03;;;15.03;;
15944;SDS011;30172;48.832;8.732;2022-11-14T01:39:28;39.13;;;12.10;;
15944;SDS011;30172;48.832;8.732;2022-11-14T01:41:54;20.20;;;11.53;;
15944;SDS011;30172;48.832;8.732;2022-11-14T01:47:10;93.50;;;14.17;;
15944;SDS011;30172;48.832;8.732;2022-11-14T01:49:37;53.73;;;12.50;;
15944;SDS011;30172;48.832;8.732;2022-11-14T01:54:34;44.07;;;11.90;;
15944;SDS011;30172;48.832;8.732;2022-11-14T01:57:02;17.03;;;10.03;;
15944;SDS011;30172;48.832;8.732;2022-11-14T01:59:33;19.97;;;11.33;;
15944;SDS011;30172;48.832;8.732;2022-11-14T02:02:03;11.00;;;8.87;;
15944;SDS011;30172;48.832;8.732;2022-11-14T02:04:35;18.10;;;10.53;;
15944;SDS011;30172;48.832;8.732;2022-11-14T02:07:03;26.80;;;10.27;;
15944;SDS011;30172;48.832;8.732;2022-11-14T02:09:30;93.03;;;12.63;;
15944;SDS011;30172;48.832;8.732;2022-11-14T02:11:58;15.87;;;9.97;;
15944;SDS011;30172;48.832;8.732;2022-11-14T02:14:25;89.73;;;13.83;;
15944;SDS011;30172;48.832;8.732;2022-11-14T02:16:51;10.03;;;8.90;;
15944;SDS011;30172;48.832;8.732;2022-11-14T02:19:16;29.40;;;10.20;;
15944;SDS011;30172;48.832;8.732;2022-11-14T02:21:41;31.77;;;10.03;;
15944;SDS011;30172;48.832;8.732;2022-11-14T02:24:08;30.37;;;9.50;;
15944;SDS011;30172;48.832;8.732;2022-11-14T02:26:34;37.03;;;9.00;;
15944;SDS011;30172;48.832;8.732;2022-11-14T02:28:59;22.47;;;8.30;;
15944;SDS011;30172;48.832;8.732;2022-11-14T02:31:24;15.63;;;8.93;;
15944;SDS011;30172;48.832;8.732;2022-11-14T02:33:50;64.37;;;10.17;;
15944;SDS011;30172;48.832;8.732;2022-11-14T02:36:15;10.07;;;7.87;;
15944;SDS011;30172;48.832;8.732;2022-11-14T02:38:40;10.87;;;7.77;;
15944;SDS011;30172;48.832;8.732;2022-11-14T02:41:05;11.37;;;7.80;;
15944;SDS011;30172;48.832;8.732;2022-11-14T02:43:31;31.23;;;9.00;;
15944;SDS011;30172;48.832;8.732;2022-11-14T02:45:56;55.37;;;9.03;;
15944;SDS011;30172;48.832;8.732;2022-11-14T02:48:21;8.50;;;7.00;;
15944;SDS011;30172;48.832;8.732;2022-11-14T02:50:47;26.80;;;7.87;;
15944;SDS011;30172;48.832;8.732;2022-11-14T02:53:13;92.97;;;10.87;;
15944;SDS011;30172;48.832;8.732;2022-11-14T02:55:38;10.33;;;6.87;;
15944;SDS011;30172;48.832;8.732;2022-11-14T02:58:03;11.50;;;7.50;;
15944;SDS011;30172;48.832;8.732;2022-11-14T03:00:29;10.10;;;7.23;;
15944;SDS011;30172;48.832;8.732;2022-11-14T03:02:54;21.83;;;7.13;;
15944;SDS011;30172;48.832;8.732;2022-11-14T03:05:20;33.47;;;7.43;;
15944;SDS011;30172;48.832;8.732;2022-11-14T03:07:45;69.13;;;9.40;;
15944;SDS011;30172;48.832;8.732;2022-11-14T03:10:11;156.73;;;12.43;;
15944;SDS011;30172;48.832;8.732;2022-11-14T03:12:38;29.00;;;7.60;;
15944;SDS011;30172;48.832;8.732;2022-11-14T03:15:04;9.70;;;6.93;;
15944;SDS011;30172;48.832;8.732;2022-11-14T03:17:31;9.13;;;6.93;;
15944;SDS011;30172;48.832;8.732;2022-11-14T03:19:57;9.97;;;6.63;;
15944;SDS011;30172;48.832;8.732;2022-11-14T03:22:22;38.47;;;8.07;;
15944;SDS011;30172;48.832;8.732;2022-11-14T03:24:47;86.50;;;9.73;;
15944;SDS011;30172;48.832;8.732;2022-11-14T03:27:12;21.30;;;6.90;;
15944;SDS011;30172;48.832;8.732;2022-11-14T03:29:38;47.83;;;8.40;;
15944;SDS011;30172;48.832;8.732;2022-11-14T03:32:03;20.40;;;7.63;;
15944;SDS011;30172;48.832;8.732;2022-11-14T03:34:28;7.73;;;6.63;;
15944;SDS011;30172;48.832;8.732;2022-11-14T03:36:54;74.33;;;9.63;;
15944;SDS011;30172;48.832;8.732;2022-11-14T03:39:19;54.83;;;8.27;;
15944;SDS011;30172;48.832;8.732;2022-11-14T03:41:45;25.60;;;7.53;;
15944;SDS011;30172;48.832;8.732;2022-11-14T03:44:10;12.43;;;6.77;;
15944;SDS011;30172;48.832;8.732;2022-11-14T03:46:35;8.10;;;6.57;;
15944;SDS011;30172;48.832;8.732;2022-11-14T03:49:01;7.40;;;6.63;;
15944;SDS011;30172;48.832;8.732;2022-11-14T03:51:26;11.37;;;6.87;;
15944;SDS011;30172;48.832;8.732;2022-11-14T03:53:51;8.17;;;6.93;;
15944;SDS011;30172;48.832;8.732;2022-11-14T03:56:16;8.40;;;6.73;;
15944;SDS011;30172;48.832;8.732;2022-11-14T03:58:42;8.37;;;7.40;;
15944;SDS011;30172;48.832;8.732;2022-11-14T04:01:07;7.63;;;6.83;;
15944;SDS011;30172;48.832;8.732;2022-11-14T04:03:32;8.43;;;6.70;;
15944;SDS011;30172;48.832;8.732;2022-11-14T04:05:58;7.20;;;6.30;;
15944;SDS011;30172;48.832;8.732;2022-11-14T04:08:23;8.67;;;6.57;;
15944;SDS011;30172;48.832;8.732;2022-11-14T04:10:48;7.53;;;6.67;;
15944;SDS011;30172;48.832;8.732;2022-11-14T04:13:14;7.27;;;6.37;;
15944;SDS011;30172;48.832;8.732;2022-11-14T04:15:39;8.17;;;6.43;;
15944;SDS011;30172;48.832;8.732;2022-11-14T04:18:05;6.97;;;6.00;;
15944;SDS011;30172;48.832;8.732;2022-11-14T04:20:30;6.97;;;6.27;;
15944;SDS011;30172;48.832;8.732;2022-11-14T04:22:56;7.00;;;6.20;;
15944;SDS011;30172;48.832;8.732;2022-11-14T04:25:21;7.53;;;5.60;;
15944;SDS011;30172;48.832;8.732;2022-11-14T04:27:46;7.63;;;5.43;;
15944;SDS011;30172;48.832;8.732;2022-11-14T04:30:11;6.77;;;5.83;;
15944;SDS011;30172;48.832;8.732;2022-11-14T04:32:38;6.03;;;5.10;;
15944;SDS011;30172;48.832;8.732;2022-11-14T04:35:04;6.17;;;5.53;;
15944;SDS011;30172;48.832;8.732;2022-11-14T04:37:29;6.63;;;5.50;;
15944;SDS011;30172;48.832;8.732;2022-11-14T04:39:55;7.37;;;5.37;;
15944;SDS011;30172;48.832;8.732;2022-11-14T04:42:26;5.80;;;5.20;;
15944;SDS011;30172;48.832;8.732;2022-11-14T04:44:51;6.37;;;5.10;;
15944;SDS011;30172;48.832;8.732;2022-11-14T04:47:17;5.93;;;5.23;;
15944;SDS011;30172;48.832;8.732;2022-11-14T04:49:42;6.53;;;5.27;;
15944;SDS011;30172;48.832;8.732;2022-11-14T04:52:07;6.47;;;5.57;;
15944;SDS011;30172;48.832;8.732;2022-11-14T04:54:32;6.27;;;5.67;;
15944;SDS011;30172;48.832;8.732;2022-11-14T04:56:58;7.70;;;5.63;;
15944;SDS011;30172;48.832;8.732;2022-11-14T04:59:23;5.63;;;4.90;;
15944;SDS011;30172;48.832;8.732;2022-11-14T05:01:48;6.27;;;5.47;;
15944;SDS011;30172;48.832;8.732;2022-11-14T05:04:14;6.50;;;5.63;;
15944;SDS011;30172;48.832;8.732;2022-11-14T05:06:39;6.33;;;5.63;;
15944;SDS011;30172;48.832;8.732;2022-11-14T05:09:04;6.17;;;5.57;;
15944;SDS011;30172;48.832;8.732;2022-11-14T05:11:29;6.57;;;5.10;;
15944;SDS011;30172;48.832;8.732;2022-11-14T05:13:55;6.03;;;5.27;;
15944;SDS011;30172;48.832;8.732;2022-11-14T05:16:20;6.33;;;5.23;;
15944;SDS011;30172;48.832;8.732;2022-11-14T05:18:45;7.00;;;5.27;;
15944;SDS011;30172;48.832;8.732;2022-11-14T05:21:14;5.90;;;5.27;;
15944;SDS011;30172;48.832;8.732;2022-11-14T05:23:39;6.00;;;5.40;;
15944;SDS011;30172;48.832;8.732;2022-11-14T05:26:06;6.93;;;6.23;;
15944;SDS011;30172;48.832;8.732;2022-11-14T05:28:32;6.47;;;5.17;;
15944;SDS011;30172;48.832;8.732;2022-11-14T05:33:27;6.57;;;5.53;;
15944;SDS011;30172;48.832;8.732;2022-11-14T05:35:52;7.77;;;5.63;;
15944;SDS011;30172;48.832;8.732;2022-11-14T05:38:17;7.50;;;6.27;;
15944;SDS011;30172;48.832;8.732;2022-11-14T05:40:43;6.60;;;5.57;;
15944;SDS011;30172;48.832;8.732;2022-11-14T05:43:08;7.47;;;5.90;;
15944;SDS011;30172;48.832;8.732;2022-11-14T05:45:33;9.00;;;5.90;;
15944;SDS011;30172;48.832;8.732;2022-11-14T05:48:01;6.80;;;5.47;;
15944;SDS011;30172;48.832;8.732;2022-11-14T05:50:27;6.00;;;5.37;;
15944;SDS011;30172;48.832;8.732;2022-11-14T05:52:52;5.93;;;5.27;;
15944;SDS011;30172;48.832;8.732;2022-11-14T05:55:18;6.10;;;4.90;;
15944;SDS011;30172;48.832;8.732;2022-11-14T05:57:43;6.73;;;5.00;;
15944;SDS011;30172;48.832;8.732;2022-11-14T06:00:08;5.77;;;5.17;;
15944;SDS011;30172;48.832;8.732;2022-11-14T06:02:34;8.10;;;5.37;;
15944;SDS011;30172;48.832;8.732;2022-11-14T06:04:59;7.90;;;5.60;;
15944;SDS011;30172;48.832;8.732;2022-11-14T06:07:25;6.90;;;5.30;;
15944;SDS011;30172;48.832;8.732;2022-11-14T06:09:50;6.13;;;5.17;;
15944;SDS011;30172;48.832;8.732;2022-11-14T06:12:15;7.07;;;6.00;;
15944;SDS011;30172;48.832;8.732;2022-11-14T06:14:41;6.97;;;5.93;;
15944;SDS011;30172;48.832;8.732;2022-11-14T06:17:06;8.40;;;5.70;;
15944;SDS011;30172;48.832;8.732;2022-11-14T06:19:31;6.33;;;5.43;;
15944;SDS011;30172;48.832;8.732;2022-11-14T06:21:56;6.60;;;5.00;;
15944;SDS011;30172;48.832;8.732;2022-11-14T06:24:22;7.63;;;6.10;;
15944;SDS011;30172;48.832;8.732;2022-11-14T06:26:47;6.40;;;5.33;;
15944;SDS011;30172;48.832;8.732;2022-11-14T06:29:12;6.63;;;5.63;;
15944;SDS011;30172;48.832;8.732;2022-11-14T06:31:38;6.80;;;5.87;;
15944;SDS011;30172;48.832;8.732;2022-11-14T06:34:03;6.47;;;5.53;;
15944;SDS011;30172;48.832;8.732;2022-11-14T06:36:30;6.87;;;5.97;;
15944;SDS011;30172;48.832;8.732;2022-11-14T06:38:55;7.60;;;5.67;;
15944;SDS011;30172;48.832;8.732;2022-11-14T06:41:20;5.97;;;5.30;;
15944;SDS011;30172;48.832;8.732;2022-11-14T06:43:47;7.43;;;6.23;;
15944;SDS011;30172;48.832;8.732;2022-11-14T06:46:15;6.77;;;6.07;;
15944;SDS011;30172;48.832;8.732;2022-11-14T06:48:42;7.73;;;6.67;;
15944;SDS011;30172;48.832;8.732;2022-11-14T06:51:08;7.63;;;6.73;;
15944;SDS011;30172;48.832;8.732;2022-11-14T06:53:34;10.23;;;7.63;;
15944;SDS011;30172;48.832;8.732;2022-11-14T06:56:01;8.07;;;6.73;;
15944;SDS011;30172;48.832;8.732;2022-11-14T06:58:31;11.47;;;7.37;;
15944;SDS011;30172;48.832;8.732;2022-11-14T07:01:11;11.17;;;8.83;;
15944;SDS011;30172;48.832;8.732;2022-11-14T07:04:03;11.50;;;8.83;;
15944;SDS011;30172;48.832;8.732;2022-11-14T07:06:29;11.43;;;9.00;;
15944;SDS011;30172;48.832;8.732;2022-11-14T07:08:55;11.87;;;9.47;;
15944;SDS011;30172;48.832;8.732;2022-11-14T07:11:22;16.27;;;11.20;;
15944;SDS011;30172;48.832;8.732;2022-11-14T07:13:53;13.77;;;11.03;;
15944;SDS011;30172;48.832;8.732;2022-11-14T07:16:22;14.33;;;10.73;;
15944;SDS011;30172;48.832;8.732;2022-11-14T07:18:49;16.90;;;12.03;;
15944;SDS011;30172;48.832;8.732;2022-11-14T07:21:14;18.13;;;12.23;;
15944;SDS011;30172;48.832;8.732;2022-11-14T07:23:40;17.13;;;12.43;;
15944;SDS011;30172;48.832;8.732;2022-11-14T07:26:06;17.30;;;12.10;;
15944;SDS011;30172;48.832;8.732;2022-11-14T07:28:36;20.83;;;14.23;;
15944;SDS011;30172;48.832;8.732;2022-11-14T07:31:03;19.03;;;12.30;;
15944;SDS011;30172;48.832;8.732;2022-11-14T07:33:29;16.40;;;12.43;;
15944;SDS011;30172;48.832;8.732;2022-11-14T07:35:55;19.23;;;13.53;;
15944;SDS011;30172;48.832;8.732;2022-11-14T07:38:20;19.20;;;13.53;;
15944;SDS011;30172;48.832;8.732;2022-11-14T07:40:55;22.60;;;14.23;;
15944;SDS011;30172;48.832;8.732;2022-11-14T07:43:28;21.30;;;13.97;;
15944;SDS011;30172;48.832;8.732;2022-11-14T07:45:53;22.33;;;14.70;;
15944;SDS011;30172;48.832;8.732;2022-11-14T07:48:18;19.43;;;14.33;;
15944;SDS011;30172;48.832;8.732;2022-11-14T07:50:45;22.90;;;16.57;;
15944;SDS011;30172;48.832;8.732;2022-11-14T07:53:11;24.87;;;17.47;;
15944;SDS011;30172;48.832;8.732;2022-11-14T07:55:37;20.80;;;15.10;;
15944;SDS011;30172;48.832;8.732;2022-11-14T07:58:03;20.17;;;14.50;;
15944;SDS011;30172;48.832;8.732;2022-11-14T08:00:28;21.10;;;14.00;;
15944;SDS011;30172;48.832;8.732;2022-11-14T08:02:53;25.83;;;16.67;;
15944;SDS011;30172;48.832;8.732;2022-11-14T08:05:19;22.63;;;16.07;;
15944;SDS011;30172;48.832;8.732;2022-11-14T08:07:44;20.03;;;14.23;;
15944;SDS011;30172;48.832;8.732;2022-11-14T08:10:09;20.60;;;14.30;;
15944;SDS011;30172;48.832;8.732;2022-11-14T08:12:36;19.43;;;14.13;;
15944;SDS011;30172;48.832;8.732;2022-11-14T08:15:03;18.90;;;14.77;;
15944;SDS011;30172;48.832;8.732;2022-11-14T08:17:32;22.07;;;14.97;;
15944;SDS011;30172;48.832;8.732;2022-11-14T08:19:57;22.23;;;16.07;;
15944;SDS011;30172;48.832;8.732;2022-11-14T08:22:23;17.67;;;13.23;;
15944;SDS011;30172;48.832;8.732;2022-11-14T08:24:48;17.87;;;12.80;;
15944;SDS011;30172;48.832;8.732;2022-11-14T08:27:13;17.33;;;12.47;;
15944;SDS011;30172;48.832;8.732;2022-11-14T08:29:38;18.13;;;12.67;;
15944;SDS011;30172;48.832;8.732;2022-11-14T08:32:04;15.13;;;11.93;;
15944;SDS011;30172;48.832;8.732;2022-11-14T08:34:29;18.37;;;11.80;;
15944;SDS011;30172;48.832;8.732;2022-11-14T08:36:54;14.00;;;9.77;;
15944;SDS011;30172;48.832;8.732;2022-11-14T08:39:21;13.03;;;9.70;;
15944;SDS011;30172;48.832;8.732;2022-11-14T08:41:47;14.27;;;10.30;;
15944;SDS011;30172;48.832;8.732;2022-11-14T08:44:12;15.53;;;10.30;;
15944;SDS011;30172;48.832;8.732;2022-11-14T08:46:37;12.37;;;9.10;;
15944;SDS011;30172;48.832;8.732;2022-11-14T08:49:02;13.17;;;10.27;;
15944;SDS011;30172;48.832;8.732;2022-11-14T08:51:28;13.13;;;8.13;;
15944;SDS011;30172;48.832;8.732;2022-11-14T08:53:53;12.13;;;8.63;;
15944;SDS011;30172;48.832;8.732;2022-11-14T08:56:18;11.53;;;9.40;;
15944;SDS011;30172;48.832;8.732;2022-11-14T08:58:44;12.47;;;9.57;;
15944;SDS011;30172;48.832;8.732;2022-11-14T09:01:09;13.00;;;8.70;;
15944;SDS011;30172;48.832;8.732;2022-11-14T09:03:35;14.57;;;8.73;;
15944;SDS011;30172;48.832;8.732;2022-11-14T09:06:00;10.20;;;8.00;;
15944;SDS011;30172;48.832;8.732;2022-11-14T09:08:26;13.23;;;8.70;;
15944;SDS011;30172;48.832;8.732;2022-11-14T09:10:52;13.27;;;8.97;;
15944;SDS011;30172;48.832;8.732;2022-11-14T09:13:17;11.77;;;7.20;;
15944;SDS011;30172;48.832;8.732;2022-11-14T09:15:42;10.27;;;7.90;;
15944;SDS011;30172;48.832;8.732;2022-11-14T09:18:08;8.73;;;7.00;;
15944;SDS011;30172;48.832;8.732;2022-11-14T09:20:34;9.97;;;7.17;;
15944;SDS011;30172;48.832;8.732;2022-11-14T09:23:00;19.73;;;13.80;;
15944;SDS011;30172;48.832;8.732;2022-11-14T09:25:26;10.13;;;7.23;;
15944;SDS011;30172;48.832;8.732;2022-11-14T09:27:53;9.13;;;6.80;;
15944;SDS011;30172;48.832;8.732;2022-11-14T09:30:18;9.03;;;6.77;;
15944;SDS011;30172;48.832;8.732;2022-11-14T09:32:43;9.17;;;6.80;;
15944;SDS011;30172;48.832;8.732;2022-11-14T09:35:09;7.80;;;5.87;;
15944;SDS011;30172;48.832;8.732;2022-11-14T09:37:36;6.63;;;5.93;;
15944;SDS011;30172;48.832;8.732;2022-11-14T09:40:02;9.40;;;6.07;;
15944;SDS011;30172;48.832;8.732;2022-11-14T09:45:17;8.93;;;6.00;;
15944;SDS011;30172;48.832;8.732;2022-11-14T09:47:44;9.50;;;5.60;;
15944;SDS011;30172;48.832;8.732;2022-11-14T09:50:18;7.63;;;6.03;;
15944;SDS011;30172;48.832;8.732;2022-11-14T09:52:53;6.53;;;4.90;;
15944;SDS011;30172;48.832;8.732;2022-11-14T09:55:20;8.00;;;6.10;;
15944;SDS011;30172;48.832;8.732;2022-11-14T09:57:47;6.80;;;4.97;;
15944;SDS011;30172;48.832;8.732;2022-11-14T10:00:23;6.20;;;4.57;;
15944;SDS011;30172;48.832;8.732;2022-11-14T10:03:06;5.57;;;4.60;;
15944;SDS011;30172;48.832;8.732;2022-11-14T10:05:50;5.77;;;4.50;;
15944;SDS011;30172;48.832;8.732;2022-11-14T10:11:16;6.10;;;4.33;;
15944;SDS011;30172;48.832;8.732;2022-11-14T10:20:00;5.17;;;4.23;;
15944;SDS011;30172;48.832;8.732;2022-11-14T10:25:25;5.97;;;4.77;;
15944;SDS011;30172;48.832;8.732;2022-11-14T10:31:06;6.27;;;4.47;;
15944;SDS011;30172;48.832;8.732;2022-11-14T10:34:04;5.37;;;4.50;;
15944;SDS011;30172;48.832;8.732;2022-11-14T10:39:19;4.03;;;3.47;;
15944;SDS011;30172;48.832;8.732;2022-11-14T10:41:46;5.93;;;3.73;;
15944;SDS011;30172;48.832;8.732;2022-11-14T10:44:15;5.60;;;4.23;;
15944;SDS011;30172;48.832;8.732;2022-11-14T10:46:47;5.80;;;3.50;;
15944;SDS011;30172;48.832;8.732;2022-11-14T10:49:19;4.83;;;4.20;;
15944;SDS011;30172;48.832;8.732;2022-11-14T10:51:50;4.10;;;3.43;;
15944;SDS011;30172;48.832;8.732;2022-11-14T10:56:52;5.10;;;3.70;;
15944;SDS011;30172;48.832;8.732;2022-11-14T10:59:19;4.73;;;3.43;;
15944;SDS011;30172;48.832;8.732;2022-11-14T11:01:52;3.57;;;3.23;;
15944;SDS011;30172;48.832;8.732;2022-11-14T11:04:20;4.23;;;3.27;;
15944;SDS011;30172;48.832;8.732;2022-11-14T11:06:50;4.27;;;3.87;;
15944;SDS011;30172;48.832;8.732;2022-11-14T11:09:18;4.80;;;3.47;;
15944;SDS011;30172;48.832;8.732;2022-11-14T11:12:02;3.23;;;2.93;;
15944;SDS011;30172;48.832;8.732;2022-11-14T11:14:29;3.77;;;2.60;;
15944;SDS011;30172;48.832;8.732;2022-11-14T11:17:07;3.40;;;2.57;;
15944;SDS011;30172;48.832;8.732;2022-11-14T11:19:39;2.87;;;2.57;;
15944;SDS011;30172;48.832;8.732;2022-11-14T11:24:51;5.47;;;2.43;;
15944;SDS011;30172;48.832;8.732;2022-11-14T11:27:20;2.80;;;2.50;;
15944;SDS011;30172;48.832;8.732;2022-11-14T11:29:49;3.23;;;2.60;;
15944;SDS011;30172;48.832;8.732;2022-11-14T11:32:26;4.27;;;2.13;;
15944;SDS011;30172;48.832;8.732;2022-11-14T11:34:52;3.17;;;2.20;;
15944;SDS011;30172;48.832;8.732;2022-11-14T11:37:22;4.00;;;2.00;;
15944;SDS011;30172;48.832;8.732;2022-11-14T11:39:50;3.27;;;2.97;;
15944;SDS011;30172;48.832;8.732;2022-11-14T11:42:22;3.03;;;1.93;;
15944;SDS011;30172;48.832;8.732;2022-11-14T11:44:49;2.40;;;2.20;;
15944;SDS011;30172;48.832;8.732;2022-11-14T11:47:18;2.40;;;2.00;;
15944;SDS011;30172;48.832;8.732;2022-11-14T11:49:46;3.57;;;2.10;;
15944;SDS011;30172;48.832;8.732;2022-11-14T11:52:32;2.30;;;2.10;;
15944;SDS011;30172;48.832;8.732;2022-11-14T11:57:40;2.30;;;1.77;;
15944;SDS011;30172;48.832;8.732;2022-11-14T12:02:41;2.63;;;2.27;;
15944;SDS011;30172;48.832;8.732;2022-11-14T12:05:10;5.77;;;3.57;;
15944;SDS011;30172;48.832;8.732;2022-11-14T12:08:00;7.67;;;4.90;;
15944;SDS011;30172;48.832;8.732;2022-11-14T12:10:26;5.00;;;2.80;;
15944;SDS011;30172;48.832;8.732;2022-11-14T12:12:59;2.33;;;2.13;;
15944;SDS011;30172;48.832;8.732;2022-11-14T12:15:50;2.30;;;2.00;;
15944;SDS011;30172;48.832;8.732;2022-11-14T12:18:36;3.53;;;2.20;;
15944;SDS011;30172;48.832;8.732;2022-11-14T12:24:02;2.97;;;2.20;;
15944;SDS011;30172;48.832;8.732;2022-11-14T12:32:30;2.40;;;2.03;;
15944;SDS011;30172;48.832;8.732;2022-11-14T12:34:57;2.43;;;2.03;;
15944;SDS011;30172;48.832;8.732;2022-11-14T12:40:05;2.43;;;1.90;;
15944;SDS011;30172;48.832;8.732;2022-11-14T12:42:32;3.60;;;2.20;;
15944;SDS011;30172;48.832;8.732;2022-11-14T12:44:57;2.27;;;1.93;;
15944;SDS011;30172;48.832;8.732;2022-11-14T12:47:24;6.20;;;4.73;;
15944;SDS011;30172;48.832;8.732;2022-11-14T12:53:01;3.30;;;2.33;;
15944;SDS011;30172;48.832;8.732;2022-11-14T12:55:51;3.07;;;2.13;;
15944;SDS011;30172;48.832;8.732;2022-11-14T12:58:08;2.47;;;2.27;;
15944;SDS011;30172;48.832;8.732;2022-11-14T13:00:40;6.10;;;4.33;;
15944;SDS011;30172;48.832;8.732;2022-11-14T13:03:26;3.40;;;2.70;;
15944;SDS011;30172;48.832;8.732;2022-11-14T13:06:19;2.40;;;2.20;;
15944;SDS011;30172;48.832;8.732;2022-11-14T13:14:23;4.63;;;2.33;;
15944;SDS011;30172;48.832;8.732;2022-11-14T13:17:28;2.53;;;2.30;;
15944;SDS011;30172;48.832;8.732;2022-11-14T13:23:04;4.03;;;2.83;;
15944;SDS011;30172;48.832;8.732;2022-11-14T13:31:06;2.23;;;2.10;;
15944;SDS011;30172;48.832;8.732;2022-11-14T13:33:41;2.53;;;2.10;;
15944;SDS011;30172;48.832;8.732;2022-11-14T13:36:29;4.90;;;2.20;;
15944;SDS011;30172;48.832;8.732;2022-11-14T13:39:04;2.67;;;2.30;;
15944;SDS011;30172;48.832;8.732;2022-11-14T13:52:39;2.27;;;2.00;;
15944;SDS011;30172;48.832;8.732;2022-11-14T13:55:15;2.30;;;1.97;;
15944;SDS011;30172;48.832;8.732;2022-11-14T13:57:51;4.13;;;2.40;;
15944;SDS011;30172;48.832;8.732;2022-11-14T14:00:19;2.30;;;2.10;;
15944;SDS011;30172;48.832;8.732;2022-11-14T14:03:00;3.37;;;2.33;;
15944;SDS011;30172;48.832;8.732;2022-11-14T14:16:17;3.47;;;2.90;;
15944;SDS011;30172;48.832;8.732;2022-11-14T14:19:07;2.90;;;2.27;;
15944;SDS011;30172;48.832;8.732;2022-11-14T14:32:36;3.07;;;2.73;;
15944;SDS011;30172;48.832;8.732;2022-11-14T14:35:21;3.43;;;3.13;;
15944;SDS011;30172;48.832;8.732;2022-11-14T14:37:53;3.97;;;2.87;;
15944;SDS011;30172;48.832;8.732;2022-11-14T14:40:24;3.50;;;3.20;;
15944;SDS011;30172;48.832;8.732;2022-11-14T14:42:51;6.13;;;3.40;;
15944;SDS011;30172;48.832;8.732;2022-11-14T14:45:19;4.07;;;3.67;;
15944;SDS011;30172;48.832;8.732;2022-11-14T14:47:47;4.60;;;3.03;;
15944;SDS011;30172;48.832;8.732;2022-11-14T14:52:45;4.27;;;3.60;;
15944;SDS011;30172;48.832;8.732;2022-11-14T14:55:24;5.60;;;3.40;;
15944;SDS011;30172;48.832;8.732;2022-11-14T14:57:51;6.63;;;3.70;;
15944;SDS011;30172;48.832;8.732;2022-11-14T15:00:20;4.40;;;2.90;;
15944;SDS011;30172;48.832;8.732;2022-11-14T15:02:49;5.60;;;3.33;;
15944;SDS011;30172;48.832;8.732;2022-11-14T15:05:22;3.97;;;3.43;;
15944;SDS011;30172;48.832;8.732;2022-11-14T15:07:49;5.90;;;3.70;;
15944;SDS011;30172;48.832;8.732;2022-11-14T15:10:20;5.20;;;3.93;;
15944;SDS011;30172;48.832;8.732;2022-11-14T15:12:47;6.60;;;5.30;;
15944;SDS011;30172;48.832;8.732;2022-11-14T15:15:14;9.53;;;3.93;;
15944;SDS011;30172;48.832;8.732;2022-11-14T15:17:40;6.10;;;5.00;;
15944;SDS011;30172;48.832;8.732;2022-11-14T15:20:18;8.63;;;5.77;;
15944;SDS011;30172;48.832;8.732;2022-11-14T15:23:05;8.97;;;5.53;;
15944;SDS011;30172;48.832;8.732;2022-11-14T15:25:43;6.73;;;4.60;;
15944;SDS011;30172;48.832;8.732;2022-11-14T15:28:20;7.93;;;4.20;;
15944;SDS011;30172;48.832;8.732;2022-11-14T15:30:56;5.40;;;4.37;;
15944;SDS011;30172;48.832;8.732;2022-11-14T15:33:27;7.47;;;5.30;;
15944;SDS011;30172;48.832;8.732;2022-11-14T15:38:37;6.37;;;3.80;;
15944;SDS011;30172;48.832;8.732;2022-11-14T15:41:14;6.97;;;4.43;;
15944;SDS011;30172;48.832;8.732;2022-11-14T15:49:18;9.27;;;4.43;;
15944;SDS011;30172;48.832;8.732;2022-11-14T15:54:21;6.30;;;4.77;;
15944;SDS011;30172;48.832;8.732;2022-11-14T15:56:48;6.23;;;4.57;;
15944;SDS011;30172;48.832;8.732;2022-11-14T15:59:14;6.43;;;4.70;;
15944;SDS011;30172;48.832;8.732;2022-11-14T16:01:39;6.50;;;4.37;;
15944;SDS011;30172;48.832;8.732;2022-11-14T16:04:13;7.47;;;4.70;;
15944;SDS011;30172;48.832;8.732;2022-11-14T16:06:39;9.07;;;5.80;;
15944;SDS011;30172;48.832;8.732;2022-11-14T16:09:05;5.37;;;4.87;;
15944;SDS011;30172;48.832;8.732;2022-11-14T16:11:30;6.83;;;5.50;;
15944;SDS011;30172;48.832;8.732;2022-11-14T16:13:55;6.37;;;4.80;;
15944;SDS011;30172;48.832;8.732;2022-11-14T16:16:21;14.53;;;10.60;;
15944;SDS011;30172;48.832;8.732;2022-11-14T16:18:46;8.90;;;8.10;;
15944;SDS011;30172;48.832;8.732;2022-11-14T16:21:12;8.17;;;6.27;;
15944;SDS011;30172;48.832;8.732;2022-11-14T16:23:40;6.20;;;5.53;;
15944;SDS011;30172;48.832;8.732;2022-11-14T16:26:05;8.63;;;6.03;;
15944;SDS011;30172;48.832;8.732;2022-11-14T16:28:30;7.50;;;5.67;;
15944;SDS011;30172;48.832;8.732;2022-11-14T16:30:56;7.03;;;5.80;;
15944;SDS011;30172;48.832;8.732;2022-11-14T16:33:21;8.13;;;5.20;;
15944;SDS011;30172;48.832;8.732;2022-11-14T16:35:46;9.50;;;6.43;;
15944;SDS011;30172;48.832;8.732;2022-11-14T16:38:12;6.77;;;5.63;;